KPGA/PGA METAR and TAF weather

Enter ICAO airport designator
Station Type Date Time Source
KPGA METAR 2022/11/26 08:53 UTC NOAA

KPGA 260853Z AUTO 00000KT 10SM CLR 01/M10 A3019 RMK AO2 SLP217 T00111100 58013


Station Type Date Time Source
KPGA Decoded METAR 2022/11/26 08:53 UTC NOAA

PAGE MUNICIPAL AIRPORT, AZ, United States (KPGA) 36-56N 111-27W 1307M
Nov 26, 2022 - 03:53 AM EST / 2022.11.26 0853 UTC
Wind: Calm:0
Visibility: 10 mile(s):0
Sky conditions: clear
Temperature: 34.0 F (1.1 C)
Dew Point: 14.0 F (-10.0 C)
Relative Humidity: 43%
Pressure (altimeter): 30.19 in. Hg (1022 hPa)
Pressure tendency: 0.04 inches (1.3 hPa) lower than three hours ago
ob: KPGA 260853Z AUTO 00000KT 10SM CLR 01/M10 A3019 RMK AO2 SLP217 T00111100 58013
cycle: 9

Station Type Date Time Source
KPGA TAF 2022/11/26 06:22 UTC NOAA

TAF KPGA 260520Z 2606/2706 VRB06KT P6SM SKC
FM262100 VRB04KT P6SM SCT200

Example: see airport list